createdAt,value
2022-08-14T00:01:36.920Z,97307.63
2022-08-14T00:04:32.244Z,97313.06
2022-08-14T00:06:50.672Z,97308.06
2022-08-14T00:09:17.681Z,97308.75
2022-08-14T00:11:44.463Z,97312.34
2022-08-14T00:14:17.340Z,97307.44
2022-08-14T00:16:45.173Z,97306.81
2022-08-14T00:19:19.487Z,97297.16
2022-08-14T00:21:52.428Z,97296.91
2022-08-14T00:24:23.388Z,97288.22
2022-08-14T00:26:56.256Z,97288.75
2022-08-14T00:29:25.384Z,97281.59
2022-08-14T00:31:54.528Z,97284.81
2022-08-14T00:34:36.534Z,97289.00
2022-08-14T00:37:11.682Z,97274.47
2022-08-14T00:39:39.755Z,97279.53
2022-08-14T00:42:07.636Z,97278.81
2022-08-14T00:44:48.646Z,97275.34
2022-08-14T00:47:17.568Z,97272.28
2022-08-14T00:49:45.602Z,97267.38
2022-08-14T00:52:18.033Z,97269.41
2022-08-14T00:54:46.156Z,97272.09
2022-08-14T00:57:13.049Z,97269.94
2022-08-14T00:59:41.414Z,97261.91
2022-08-14T01:02:09.674Z,97260.81
2022-08-14T01:04:54.009Z,97259.38
2022-08-14T01:07:23.035Z,97257.44
2022-08-14T01:09:55.866Z,97257.97
2022-08-14T01:12:27.065Z,97261.06
2022-08-14T01:15:02.057Z,97267.19
2022-08-14T01:17:50.844Z,97270.59
2022-08-14T01:20:40.647Z,97274.88
2022-08-14T01:23:16.104Z,97276.03
2022-08-14T01:25:48.144Z,97280.84
2022-08-14T01:28:46.999Z,97271.00
2022-08-14T01:31:05.908Z,97280.50
2022-08-14T01:33:59.101Z,97282.00
2022-08-14T01:36:23.010Z,97279.22
2022-08-14T01:38:51.796Z,97276.53
2022-08-14T01:41:23.066Z,97264.13
2022-08-14T01:44:02.470Z,97266.28
2022-08-14T01:46:36.753Z,97268.63
2022-08-14T01:49:07.557Z,97260.13
2022-08-14T01:51:35.258Z,97269.88
2022-08-14T01:54:21.159Z,97265.66
2022-08-14T01:56:56.914Z,97273.34
2022-08-14T01:59:37.893Z,97274.50
2022-08-14T02:02:19.895Z,97270.28
2022-08-14T02:04:57.253Z,97269.59
2022-08-14T02:07:27.276Z,97264.13
2022-08-14T02:10:15.412Z,97267.91
2022-08-14T02:12:43.471Z,97264.75
2022-08-14T02:15:11.474Z,97263.84
2022-08-14T02:17:38.911Z,97265.78
2022-08-14T02:20:08.579Z,97264.44
2022-08-14T02:22:47.235Z,97258.19
2022-08-14T02:25:16.752Z,97257.59
2022-08-14T02:28:24.385Z,97257.38
2022-08-14T02:30:33.853Z,97255.88
2022-08-14T02:33:01.571Z,97260.78
2022-08-14T02:35:32.849Z,97252.59
2022-08-14T02:38:00.985Z,97259.25
2022-08-14T02:40:33.800Z,97254.88
2022-08-14T02:43:02.678Z,97250.69
2022-08-14T02:45:38.886Z,97253.22
2022-08-14T02:49:04.190Z,97243.50
2022-08-14T02:51:04.115Z,97243.72
2022-08-14T02:53:31.634Z,97248.88
2022-08-14T02:56:02.562Z,97253.59
2022-08-14T02:58:33.048Z,97248.66
2022-08-14T03:01:01.305Z,97249.38
2022-08-14T03:03:31.714Z,97243.97
2022-08-14T03:06:00.254Z,97238.31
2022-08-14T03:08:31.815Z,97236.78
2022-08-14T03:10:59.675Z,97241.00
2022-08-14T03:13:27.416Z,97234.78
2022-08-14T03:15:58.016Z,97236.59
2022-08-14T03:18:31.218Z,97250.72
2022-08-14T03:21:07.944Z,97243.84
2022-08-14T03:23:38.597Z,97240.91
2022-08-14T03:26:30.179Z,97234.03
2022-08-14T03:29:01.120Z,97232.91
2022-08-14T03:31:29.456Z,97239.47
2022-08-14T03:34:00.160Z,97240.97
2022-08-14T03:37:37.633Z,97232.59
2022-08-14T03:39:22.729Z,97232.47
2022-08-14T03:41:53.835Z,97234.84
2022-08-14T03:45:18.984Z,97233.50
2022-08-14T03:47:08.394Z,97229.38
2022-08-14T03:49:35.286Z,97227.38
2022-08-14T03:52:28.016Z,97230.44
2022-08-14T03:54:55.723Z,97235.66
2022-08-14T03:57:22.807Z,97240.34
2022-08-14T03:59:50.638Z,97235.94
2022-08-14T04:02:33.019Z,97238.81
2022-08-14T04:05:12.741Z,97240.44
2022-08-14T04:07:49.967Z,97237.91
2022-08-14T04:10:32.696Z,97233.28
2022-08-14T04:13:04.470Z,97229.59
2022-08-14T04:15:55.960Z,97228.88
2022-08-14T04:18:21.564Z,97228.34
2022-08-14T04:20:51.724Z,97234.63
2022-08-14T04:23:29.709Z,97227.75
2022-08-14T04:26:01.267Z,97226.31
2022-08-14T04:29:08.053Z,97227.31
2022-08-14T04:31:16.106Z,97227.94
2022-08-14T04:33:42.884Z,97226.00
2022-08-14T04:36:15.917Z,97224.03
2022-08-14T04:39:02.837Z,97221.59
2022-08-14T04:41:48.310Z,97221.50
2022-08-14T04:44:36.136Z,97223.81
2022-08-14T04:47:23.811Z,97227.53
2022-08-14T04:49:56.939Z,97231.00
2022-08-14T04:52:24.896Z,97215.72
2022-08-14T04:54:52.386Z,97218.59
2022-08-14T04:57:21.866Z,97218.69
2022-08-14T04:59:49.594Z,97224.22
2022-08-14T05:02:18.223Z,97221.44
2022-08-14T05:04:56.806Z,97209.97
2022-08-14T05:07:54.416Z,97212.94
2022-08-14T05:10:16.773Z,97207.41
2022-08-14T05:13:13.510Z,97204.56
2022-08-14T05:15:39.640Z,97204.03
2022-08-14T05:18:17.784Z,97201.34
2022-08-14T05:21:57.477Z,97204.22
2022-08-14T05:23:48.779Z,97205.84
2022-08-14T05:26:18.267Z,97205.13
2022-08-14T05:28:46.161Z,97200.94
2022-08-14T05:31:20.755Z,97193.44
2022-08-14T05:33:56.561Z,97193.81
2022-08-14T05:36:25.697Z,97194.59
2022-08-14T05:38:54.045Z,97196.78
2022-08-14T05:41:22.257Z,97195.06
2022-08-14T05:43:49.464Z,97198.72
2022-08-14T05:46:22.697Z,97192.13
2022-08-14T05:48:57.297Z,97191.69
2022-08-14T05:51:25.565Z,97189.22
2022-08-14T05:54:01.549Z,97183.75
2022-08-14T05:56:38.999Z,97183.38
2022-08-14T05:59:06.110Z,97192.50
2022-08-14T06:01:34.291Z,97191.97
2022-08-14T06:04:02.098Z,97184.38
2022-08-14T06:06:36.428Z,97185.78
2022-08-14T06:09:05.673Z,97184.53
2022-08-14T06:11:36.803Z,97178.56
2022-08-14T06:14:03.606Z,97178.72
2022-08-14T06:16:30.380Z,97181.50
2022-08-14T06:19:00.175Z,97183.22
2022-08-14T06:21:27.374Z,97173.03
2022-08-14T06:23:54.103Z,97175.88
2022-08-14T06:26:22.388Z,97177.19
2022-08-14T06:28:52.102Z,97169.84
2022-08-14T06:31:20.979Z,97179.91
2022-08-14T06:35:04.398Z,97168.94
2022-08-14T06:36:36.659Z,97164.19
2022-08-14T06:39:03.941Z,97173.69
2022-08-14T06:41:58.290Z,97165.09
2022-08-14T06:44:30.349Z,97163.34
2022-08-14T06:46:59.863Z,97168.97
2022-08-14T06:49:27.301Z,97157.56
2022-08-14T06:51:57.084Z,97155.06
2022-08-14T06:54:23.785Z,97160.44
2022-08-14T06:56:58.578Z,97162.81
2022-08-14T06:59:25.281Z,97164.53
2022-08-14T07:02:13.134Z,97156.75
2022-08-14T07:04:59.044Z,97160.22
2022-08-14T07:07:25.711Z,97155.97
2022-08-14T07:09:55.464Z,97165.63
2022-08-14T07:12:55.044Z,97155.66
2022-08-14T07:15:09.848Z,97156.13
2022-08-14T07:17:47.096Z,97160.13
2022-08-14T07:20:20.555Z,97147.59
2022-08-14T07:23:05.331Z,97162.66
2022-08-14T07:25:37.462Z,97161.50
2022-08-14T07:28:23.780Z,97160.84
2022-08-14T07:30:52.521Z,97156.91
2022-08-14T07:33:29.212Z,97155.94
2022-08-14T07:36:00.014Z,97158.25
2022-08-14T07:38:33.704Z,97156.53
2022-08-14T07:41:11.673Z,97152.56
2022-08-14T07:43:42.828Z,97151.91
2022-08-14T07:46:10.837Z,97149.13
2022-08-14T07:48:43.803Z,97146.41
2022-08-14T07:51:11.496Z,97148.72
2022-08-14T07:53:40.717Z,97145.94
2022-08-14T07:56:44.519Z,97142.56
2022-08-14T07:58:58.402Z,97142.91
2022-08-14T08:01:26.316Z,97151.38
2022-08-14T08:03:59.535Z,97155.19
2022-08-14T08:06:27.564Z,97147.91
2022-08-14T08:09:01.229Z,97151.81
2022-08-14T08:11:34.794Z,97150.75
2022-08-14T08:14:17.311Z,97155.06
2022-08-14T08:16:50.982Z,97153.09
2022-08-14T08:19:19.246Z,97156.91
2022-08-14T08:21:47.106Z,97164.25
2022-08-14T08:24:20.152Z,97169.44
2022-08-14T08:26:50.256Z,97159.69
2022-08-14T08:29:28.294Z,97152.00
2022-08-14T08:31:55.903Z,97146.25
2022-08-14T08:34:24.140Z,97144.16
2022-08-14T08:36:51.672Z,97145.06
2022-08-14T08:39:22.400Z,97146.06
2022-08-14T08:41:53.181Z,97140.75
2022-08-14T08:44:31.938Z,97134.22
2022-08-14T08:47:05.550Z,97134.31
2022-08-14T08:49:43.223Z,97129.34
2022-08-14T08:52:25.165Z,97125.44
2022-08-14T08:54:58.014Z,97130.75
2022-08-14T08:57:25.566Z,97123.56
2022-08-14T08:59:55.328Z,97117.69
2022-08-14T09:02:27.555Z,97114.69
2022-08-14T09:05:02.015Z,97102.88
2022-08-14T09:07:28.815Z,97091.19
2022-08-14T09:10:00.030Z,97093.75
2022-08-14T09:12:32.129Z,97088.16
2022-08-14T09:15:13.387Z,97075.53
2022-08-14T09:17:42.323Z,97083.91
2022-08-14T09:20:11.512Z,97074.16
2022-08-14T09:22:47.830Z,97077.03
2022-08-14T09:25:16.568Z,97075.75
2022-08-14T09:27:43.758Z,97065.22
2022-08-14T09:30:31.633Z,97060.47
2022-08-14T09:33:30.598Z,97065.50
2022-08-14T09:36:36.142Z,97064.38
2022-08-14T09:39:42.275Z,97068.53
2022-08-14T09:42:45.278Z,97064.34
2022-08-14T09:45:25.317Z,97053.84
2022-08-14T09:47:57.645Z,97061.47
2022-08-14T09:50:30.046Z,97065.19
2022-08-14T09:53:04.759Z,97067.44
2022-08-14T09:55:42.640Z,97058.34
2022-08-14T09:58:19.859Z,97050.81
2022-08-14T10:00:54.906Z,97053.06
2022-08-14T10:03:33.840Z,97045.53
2022-08-14T10:06:13.726Z,97050.53
2022-08-14T10:08:53.099Z,97043.69
2022-08-14T10:11:25.019Z,97038.72
2022-08-14T10:14:21.133Z,97038.59
2022-08-14T10:17:05.206Z,97043.56
2022-08-14T10:19:36.444Z,97042.38
2022-08-14T10:23:15.168Z,97041.16
2022-08-14T10:24:55.677Z,97049.88
2022-08-14T10:27:25.300Z,97041.63
2022-08-14T10:30:01.004Z,97033.13
2022-08-14T10:32:39.964Z,97037.75
2022-08-14T10:35:14.572Z,97040.97
2022-08-14T10:37:52.642Z,97030.41
2022-08-14T10:40:37.506Z,97031.31
2022-08-14T10:43:22.972Z,97036.53
2022-08-14T10:46:03.454Z,97031.84
2022-08-14T10:48:55.066Z,97026.25
2022-08-14T10:51:30.205Z,97020.25
2022-08-14T10:54:26.085Z,97021.22
2022-08-14T10:57:20.697Z,97018.63
2022-08-14T10:59:59.693Z,97015.69
2022-08-14T11:02:54.254Z,97012.13
2022-08-14T11:05:23.634Z,97008.59
2022-08-14T11:08:02.611Z,97001.63
2022-08-14T11:10:45.851Z,96996.81
2022-08-14T11:13:27.377Z,96997.34
2022-08-14T11:16:00.534Z,96990.28
2022-08-14T11:18:30.295Z,96991.78
2022-08-14T11:21:06.770Z,96992.63
2022-08-14T11:23:38.668Z,96991.41
2022-08-14T11:26:08.729Z,96990.16
2022-08-14T11:28:46.863Z,96980.44
2022-08-14T11:31:19.559Z,96981.34
2022-08-14T11:33:50.350Z,96977.91
2022-08-14T11:36:18.753Z,96978.66
2022-08-14T11:38:46.834Z,96979.41
2022-08-14T11:41:16.963Z,96974.50
2022-08-14T11:43:58.565Z,96982.31
2022-08-14T11:46:29.735Z,96975.69
2022-08-14T11:49:05.568Z,96975.22
2022-08-14T11:51:42.924Z,96974.53
2022-08-14T11:54:34.674Z,96975.31
2022-08-14T11:57:02.382Z,96972.66
2022-08-14T11:59:33.854Z,96971.34
2022-08-14T12:02:39.109Z,96967.31
2022-08-14T12:05:01.038Z,96972.94
2022-08-14T12:07:31.210Z,96959.00
2022-08-14T12:09:59.471Z,96954.84
2022-08-14T12:12:35.295Z,96947.19
2022-08-14T12:15:04.013Z,96946.50
2022-08-14T12:17:47.530Z,96945.81
2022-08-14T12:20:32.251Z,96940.13
2022-08-14T12:23:01.496Z,96940.69
2022-08-14T12:25:29.270Z,96938.59
2022-08-14T12:27:59.382Z,96934.34
2022-08-14T12:30:48.716Z,96929.38
2022-08-14T12:33:30.906Z,96932.88
2022-08-14T12:36:04.376Z,96920.06
2022-08-14T12:38:44.379Z,96917.88
2022-08-14T12:41:21.950Z,96908.31
2022-08-14T12:44:01.907Z,96908.44
2022-08-14T12:46:46.611Z,96905.72
2022-08-14T12:49:18.899Z,96902.91
2022-08-14T12:51:56.040Z,96902.91
2022-08-14T12:54:28.181Z,96897.22
2022-08-14T12:57:14.599Z,96893.75
2022-08-14T12:59:46.103Z,96893.09
2022-08-14T13:02:25.412Z,96888.84
2022-08-14T13:04:55.592Z,96888.72
2022-08-14T13:07:22.505Z,96887.31
2022-08-14T13:09:56.267Z,96869.09
2022-08-14T13:12:32.332Z,96870.53
2022-08-14T13:15:08.853Z,96867.13
2022-08-14T13:17:41.980Z,96867.13
2022-08-14T13:20:24.390Z,96863.63
2022-08-14T13:22:54.957Z,96868.63
2022-08-14T13:25:27.391Z,96861.50
2022-08-14T13:27:57.837Z,96865.69
2022-08-14T13:30:25.884Z,96858.63
2022-08-14T13:32:58.017Z,96853.03
2022-08-14T13:35:26.421Z,96855.19
2022-08-14T13:37:54.109Z,96847.50
2022-08-14T13:40:26.661Z,96844.06
2022-08-14T13:42:55.391Z,96842.03
2022-08-14T13:45:33.886Z,96844.13
2022-08-14T13:48:19.152Z,96843.47
2022-08-14T13:50:59.720Z,96838.63
2022-08-14T13:53:33.804Z,96833.03
2022-08-14T13:56:01.578Z,96837.97
2022-08-14T13:58:34.555Z,96828.16
2022-08-14T14:01:02.688Z,96827.44
2022-08-14T14:03:35.210Z,96828.84
2022-08-14T14:06:03.544Z,96822.53
2022-08-14T14:08:46.851Z,96827.47
2022-08-14T14:11:24.203Z,96828.16
2022-08-14T14:13:58.413Z,96821.16
2022-08-14T14:16:30.665Z,96819.72
2022-08-14T14:19:09.489Z,96813.41
2022-08-14T14:21:37.652Z,96818.97
2022-08-14T14:24:06.168Z,96816.88
2022-08-14T14:26:33.354Z,96811.28
2022-08-14T14:29:06.331Z,96811.97
2022-08-14T14:31:36.560Z,96811.25
2022-08-14T14:34:07.709Z,96816.19
2022-08-14T14:36:50.100Z,96809.16
2022-08-14T14:39:21.924Z,96814.78
2022-08-14T14:41:56.412Z,96801.44
2022-08-14T14:44:26.804Z,96797.94
2022-08-14T14:46:53.832Z,96797.94
2022-08-14T14:49:31.845Z,96790.91
2022-08-14T14:52:13.952Z,96781.06
2022-08-14T14:54:53.188Z,96788.75
2022-08-14T14:57:19.878Z,96784.44
2022-08-14T14:59:46.709Z,96788.59
2022-08-14T15:02:33.748Z,96792.09
2022-08-14T15:05:00.925Z,96789.91
2022-08-14T15:07:29.760Z,96784.28
2022-08-14T15:09:56.614Z,96784.25
2022-08-14T15:12:55.663Z,96790.53
2022-08-14T15:15:12.278Z,96787.72
2022-08-14T15:17:43.333Z,96783.47
2022-08-14T15:20:17.495Z,96783.41
2022-08-14T15:22:57.180Z,96782.00
2022-08-14T15:25:24.337Z,96784.75
2022-08-14T15:27:54.362Z,96788.94
2022-08-14T15:30:24.322Z,96784.72
2022-08-14T15:32:58.699Z,96776.31
2022-08-14T15:35:25.852Z,96772.75
2022-08-14T15:37:56.482Z,96785.38
2022-08-14T15:40:23.656Z,96775.50
2022-08-14T15:42:50.858Z,96770.63
2022-08-14T15:45:18.959Z,96776.25
2022-08-14T15:47:45.641Z,96778.25
2022-08-14T15:50:13.063Z,96774.00
2022-08-14T15:52:41.516Z,96774.69
2022-08-14T15:55:15.455Z,96773.94
2022-08-14T15:57:51.765Z,96750.78
2022-08-14T16:00:54.909Z,96759.84
2022-08-14T16:03:27.665Z,96754.16
2022-08-14T16:06:10.843Z,96756.94
2022-08-14T16:08:44.039Z,96750.66
2022-08-14T16:11:12.454Z,96735.25
2022-08-14T16:13:47.676Z,96733.81
2022-08-14T16:16:47.293Z,96735.22
2022-08-14T16:19:18.822Z,96721.88
2022-08-14T16:22:02.472Z,96727.38
2022-08-14T16:25:00.120Z,96727.34
2022-08-14T16:27:37.072Z,96724.56
2022-08-14T16:30:25.000Z,96723.78
2022-08-14T16:32:57.155Z,96710.44
2022-08-14T16:35:43.228Z,96728.59
2022-08-14T16:38:44.375Z,96718.09
2022-08-14T16:41:23.240Z,96706.16
2022-08-14T16:44:04.643Z,96708.16
2022-08-14T16:46:43.978Z,96710.88
2022-08-14T16:49:13.786Z,96710.81
2022-08-14T16:51:41.303Z,96706.59
2022-08-14T16:54:34.209Z,96701.72
2022-08-14T16:57:20.787Z,96703.81
2022-08-14T16:59:52.315Z,96694.63
2022-08-14T17:02:42.721Z,96691.75
2022-08-14T17:05:17.620Z,96688.25
2022-08-14T17:08:31.604Z,96682.59
2022-08-14T17:11:09.790Z,96688.16
2022-08-14T17:13:58.154Z,96692.25
2022-08-14T17:16:26.029Z,96685.22
2022-08-14T17:19:00.735Z,96682.41
2022-08-14T17:21:38.385Z,96687.88
2022-08-14T17:24:51.683Z,96678.75
2022-08-14T17:26:57.538Z,96676.69
2022-08-14T17:29:31.258Z,96669.59
2022-08-14T17:32:28.416Z,96667.44
2022-08-14T17:34:57.661Z,96666.72
2022-08-14T17:37:45.224Z,96672.19
2022-08-14T17:40:25.987Z,96669.38
2022-08-14T17:43:01.751Z,96672.06
2022-08-14T17:45:51.050Z,96672.66
2022-08-14T17:49:10.031Z,96667.69
2022-08-14T17:51:24.249Z,96665.56
2022-08-14T17:54:02.389Z,96675.28
2022-08-14T17:56:31.521Z,96664.78
2022-08-14T17:59:05.183Z,96668.88
2022-08-14T18:01:37.794Z,96668.72
2022-08-14T18:04:24.366Z,96667.94
2022-08-14T18:06:57.814Z,96667.13
2022-08-14T18:09:57.320Z,96668.44
2022-08-14T18:12:36.478Z,96665.56
2022-08-14T18:15:17.331Z,96671.72
2022-08-14T18:17:53.262Z,96678.63
2022-08-14T18:21:39.634Z,96680.63
2022-08-14T18:23:12.810Z,96686.13
2022-08-14T18:25:47.320Z,96682.53
2022-08-14T18:28:18.387Z,96679.59
2022-08-14T18:31:44.069Z,96684.34
2022-08-14T18:34:32.008Z,96689.84
2022-08-14T18:37:12.524Z,96679.94
2022-08-14T18:40:01.418Z,96689.69
2022-08-14T18:42:50.866Z,96693.78
2022-08-14T18:45:28.481Z,96692.97
2022-08-14T18:48:50.727Z,96707.47
2022-08-14T18:51:45.578Z,96708.72
2022-08-14T18:54:29.983Z,96706.56
2022-08-14T18:57:02.699Z,96714.19
2022-08-14T18:59:39.248Z,96707.81
2022-08-14T19:02:43.781Z,96711.84
2022-08-14T19:05:10.875Z,96708.38
2022-08-14T19:07:37.548Z,96711.78
2022-08-14T19:10:06.954Z,96706.13
2022-08-14T19:12:56.830Z,96710.88
2022-08-14T19:15:38.080Z,96705.22
2022-08-14T19:18:30.742Z,96703.06
2022-08-14T19:21:13.304Z,96697.44
2022-08-14T19:23:42.787Z,96690.44
2022-08-14T19:26:35.769Z,96693.22
2022-08-14T19:29:38.265Z,96700.81
2022-08-14T19:32:40.774Z,96706.34
2022-08-14T19:35:19.515Z,96706.25
2022-08-14T19:37:52.546Z,96708.41
2022-08-14T19:40:42.795Z,96704.72
2022-08-14T19:43:10.664Z,96704.66
2022-08-14T19:45:38.716Z,96705.38
2022-08-14T19:48:15.808Z,96710.91
2022-08-14T19:50:46.276Z,96704.53
2022-08-14T19:53:17.304Z,96703.78
2022-08-14T19:55:58.647Z,96710.09
2022-08-14T19:58:55.514Z,96700.94
2022-08-14T20:01:37.211Z,96698.06
2022-08-14T20:04:08.092Z,96699.34
2022-08-14T20:06:56.009Z,96701.25
2022-08-14T20:11:03.674Z,96699.69
2022-08-14T20:12:35.057Z,96696.63
2022-08-14T20:15:15.414Z,96699.75
2022-08-14T20:17:52.215Z,96698.78
2022-08-14T20:20:30.760Z,96700.06
2022-08-14T20:23:11.160Z,96708.28
2022-08-14T20:25:45.327Z,96697.88
2022-08-14T20:28:30.742Z,96695.59
2022-08-14T20:31:17.641Z,96703.84
2022-08-14T20:34:24.862Z,96698.88
2022-08-14T20:37:04.198Z,96709.34
2022-08-14T20:39:34.398Z,96704.47
2022-08-14T20:42:30.384Z,96700.34
2022-08-14T20:45:19.947Z,96710.81
2022-08-14T20:48:01.857Z,96700.97
2022-08-14T20:50:34.263Z,96704.38
2022-08-14T20:53:25.323Z,96712.00
2022-08-14T20:55:53.538Z,96693.16
2022-08-14T20:58:45.903Z,96700.72
2022-08-14T21:01:35.895Z,96695.06
2022-08-14T21:04:05.115Z,96694.97
2022-08-14T21:07:23.468Z,96699.13
2022-08-14T21:10:05.535Z,96690.47
2022-08-14T21:12:33.677Z,96692.38
2022-08-14T21:15:03.901Z,96693.59
2022-08-14T21:17:32.303Z,96690.09
2022-08-14T21:20:26.547Z,96688.81
2022-08-14T21:22:53.842Z,96687.25
2022-08-14T21:25:23.378Z,96680.19
2022-08-14T21:27:55.899Z,96686.91
2022-08-14T21:30:51.350Z,96690.25
2022-08-14T21:33:12.233Z,96676.97
2022-08-14T21:35:44.496Z,96681.81
2022-08-14T21:38:17.955Z,96675.44
2022-08-14T21:40:48.767Z,96680.84
2022-08-14T21:43:21.139Z,96690.56
2022-08-14T21:45:53.647Z,96687.78
2022-08-14T21:48:26.474Z,96689.78
2022-08-14T21:51:02.007Z,96689.56
2022-08-14T21:53:58.625Z,96688.69
2022-08-14T21:56:38.665Z,96691.44
2022-08-14T21:59:17.719Z,96689.97
2022-08-14T22:01:59.507Z,96691.34
2022-08-14T22:04:33.469Z,96692.44
2022-08-14T22:07:10.300Z,96700.66
2022-08-14T22:09:37.938Z,96702.13
2022-08-14T22:12:10.880Z,96707.38
2022-08-14T22:14:59.868Z,96702.47
2022-08-14T22:17:32.178Z,96709.97
2022-08-14T22:20:12.484Z,96704.22
2022-08-14T22:22:43.730Z,96709.66
2022-08-14T22:25:17.464Z,96713.78
2022-08-14T22:27:55.314Z,96708.16
2022-08-14T22:30:24.799Z,96711.66
2022-08-14T22:32:57.462Z,96708.75
2022-08-14T22:35:25.942Z,96706.41
2022-08-14T22:38:36.662Z,96704.13
2022-08-14T22:41:01.782Z,96704.13
2022-08-14T22:43:31.803Z,96699.97
2022-08-14T22:46:02.361Z,96687.47
2022-08-14T22:48:29.939Z,96686.69
2022-08-14T22:50:57.098Z,96687.91
2022-08-14T22:53:24.561Z,96676.63
2022-08-14T22:55:56.709Z,96677.91
2022-08-14T22:58:31.386Z,96679.31
2022-08-14T23:01:10.581Z,96672.31
2022-08-14T23:03:42.426Z,96673.00
2022-08-14T23:07:04.141Z,96661.09
2022-08-14T23:09:34.826Z,96669.34
2022-08-14T23:11:46.770Z,96663.78
2022-08-14T23:14:15.300Z,96658.91
2022-08-14T23:16:57.523Z,96656.84
2022-08-14T23:19:25.559Z,96658.97
2022-08-14T23:22:01.889Z,96658.91
2022-08-14T23:24:28.650Z,96658.63
2022-08-14T23:26:56.105Z,96661.91
2022-08-14T23:29:22.773Z,96652.16
2022-08-14T23:31:50.056Z,96665.31
2022-08-14T23:34:20.892Z,96666.03
2022-08-14T23:36:54.119Z,96665.31
2022-08-14T23:39:30.202Z,96651.91
2022-08-14T23:42:07.588Z,96652.44
2022-08-14T23:44:37.708Z,96644.88
2022-08-14T23:47:10.679Z,96652.31
2022-08-14T23:49:56.542Z,96655.50
2022-08-14T23:52:56.391Z,96642.66
2022-08-14T23:55:13.607Z,96641.66
2022-08-14T23:57:43.528Z,96646.41
